sensor_id;sensor_type;location;lat;lon;timestamp;pressure;altitude;pressure_sealevel;temperature;humidity
56400;BME280;42298;53.638;9.876;2022-07-23T00:01:23;101620.91;;;20.10;56.62
56400;BME280;42298;53.638;9.876;2022-07-23T00:03:48;101615.31;;;20.10;56.39
56400;BME280;42298;53.638;9.876;2022-07-23T00:06:14;101612.44;;;20.19;56.41
56400;BME280;42298;53.638;9.876;2022-07-23T00:08:39;101615.09;;;20.15;56.36
56400;BME280;42298;53.638;9.876;2022-07-23T00:11:05;101611.97;;;20.17;56.53
56400;BME280;42298;53.638;9.876;2022-07-23T00:13:30;101604.13;;;20.22;56.24
56400;BME280;42298;53.638;9.876;2022-07-23T00:15:55;101602.16;;;20.23;56.42
56400;BME280;42298;53.638;9.876;2022-07-23T00:18:21;101595.03;;;20.25;56.13
56400;BME280;42298;53.638;9.876;2022-07-23T00:20:46;101595.84;;;20.26;56.20
56400;BME280;42298;53.638;9.876;2022-07-23T00:23:12;101608.94;;;20.22;56.04
56400;BME280;42298;53.638;9.876;2022-07-23T00:25:37;101597.97;;;20.17;56.51
56400;BME280;42298;53.638;9.876;2022-07-23T00:28:03;101605.31;;;20.21;56.51
56400;BME280;42298;53.638;9.876;2022-07-23T00:30:29;101603.19;;;20.30;55.77
56400;BME280;42298;53.638;9.876;2022-07-23T00:32:58;101605.50;;;20.28;55.68
56400;BME280;42298;53.638;9.876;2022-07-23T00:35:29;101595.16;;;20.29;55.54
56400;BME280;42298;53.638;9.876;2022-07-23T00:37:55;101598.88;;;20.21;55.96
56400;BME280;42298;53.638;9.876;2022-07-23T00:40:21;101584.34;;;20.15;56.04
56400;BME280;42298;53.638;9.876;2022-07-23T00:42:47;101587.13;;;20.15;56.10
56400;BME280;42298;53.638;9.876;2022-07-23T00:45:12;101589.47;;;20.13;56.11
56400;BME280;42298;53.638;9.876;2022-07-23T00:47:38;101582.94;;;20.09;56.22
56400;BME280;42298;53.638;9.876;2022-07-23T00:50:04;101588.66;;;20.01;56.48
56400;BME280;42298;53.638;9.876;2022-07-23T00:52:32;101583.31;;;19.96;56.76
56400;BME280;42298;53.638;9.876;2022-07-23T00:54:57;101579.94;;;19.90;57.14
56400;BME280;42298;53.638;9.876;2022-07-23T00:57:22;101583.09;;;19.89;56.99
56400;BME280;42298;53.638;9.876;2022-07-23T00:59:48;101580.66;;;19.87;57.05
56400;BME280;42298;53.638;9.876;2022-07-23T01:02:16;101578.06;;;19.94;57.00
56400;BME280;42298;53.638;9.876;2022-07-23T01:04:42;101578.56;;;19.84;56.87
56400;BME280;42298;53.638;9.876;2022-07-23T01:07:08;101575.06;;;19.75;57.06
56400;BME280;42298;53.638;9.876;2022-07-23T01:09:33;101573.78;;;19.73;57.59
56400;BME280;42298;53.638;9.876;2022-07-23T01:11:58;101578.56;;;19.72;56.94
56400;BME280;42298;53.638;9.876;2022-07-23T01:14:24;101568.31;;;19.64;57.34
56400;BME280;42298;53.638;9.876;2022-07-23T01:16:49;101562.59;;;19.61;57.45
56400;BME280;42298;53.638;9.876;2022-07-23T01:19:16;101563.56;;;19.65;57.35
56400;BME280;42298;53.638;9.876;2022-07-23T01:21:44;101566.56;;;19.72;57.42
56400;BME280;42298;53.638;9.876;2022-07-23T01:24:12;101568.09;;;19.69;57.57
56400;BME280;42298;53.638;9.876;2022-07-23T01:26:38;101562.50;;;19.69;57.72
56400;BME280;42298;53.638;9.876;2022-07-23T01:29:04;101561.88;;;19.76;57.38
56400;BME280;42298;53.638;9.876;2022-07-23T01:31:30;101567.25;;;19.69;57.50
56400;BME280;42298;53.638;9.876;2022-07-23T01:33:56;101569.00;;;19.61;57.57
56400;BME280;42298;53.638;9.876;2022-07-23T01:36:22;101563.44;;;19.61;57.73
56400;BME280;42298;53.638;9.876;2022-07-23T01:38:48;101562.72;;;19.64;57.62
56400;BME280;42298;53.638;9.876;2022-07-23T01:41:13;101560.28;;;19.63;57.88
56400;BME280;42298;53.638;9.876;2022-07-23T01:43:39;101557.47;;;19.63;57.83
56400;BME280;42298;53.638;9.876;2022-07-23T01:46:04;101555.59;;;19.67;57.94
56400;BME280;42298;53.638;9.876;2022-07-23T01:48:30;101563.19;;;19.66;58.18
56400;BME280;42298;53.638;9.876;2022-07-23T01:50:55;101555.03;;;19.61;57.92
56400;BME280;42298;53.638;9.876;2022-07-23T01:53:20;101570.63;;;19.62;58.34
56400;BME280;42298;53.638;9.876;2022-07-23T01:55:45;101561.81;;;19.60;58.44
56400;BME280;42298;53.638;9.876;2022-07-23T01:58:11;101552.38;;;19.65;58.40
56400;BME280;42298;53.638;9.876;2022-07-23T02:00:36;101542.69;;;19.74;57.84
56400;BME280;42298;53.638;9.876;2022-07-23T02:03:01;101548.84;;;19.80;57.95
56400;BME280;42298;53.638;9.876;2022-07-23T02:05:28;101538.13;;;19.82;57.96
56400;BME280;42298;53.638;9.876;2022-07-23T02:07:54;101523.44;;;19.85;57.87
56400;BME280;42298;53.638;9.876;2022-07-23T02:10:20;101534.19;;;19.83;57.88
56400;BME280;42298;53.638;9.876;2022-07-23T02:12:45;101539.19;;;19.77;57.62
56400;BME280;42298;53.638;9.876;2022-07-23T02:15:11;101539.88;;;19.74;57.79
56400;BME280;42298;53.638;9.876;2022-07-23T02:17:36;101528.25;;;19.72;58.03
56400;BME280;42298;53.638;9.876;2022-07-23T02:20:02;101524.50;;;19.68;58.38
56400;BME280;42298;53.638;9.876;2022-07-23T02:22:27;101527.56;;;19.63;58.95
56400;BME280;42298;53.638;9.876;2022-07-23T02:24:53;101532.69;;;19.61;58.24
56400;BME280;42298;53.638;9.876;2022-07-23T02:27:18;101528.38;;;19.64;58.80
56400;BME280;42298;53.638;9.876;2022-07-23T02:29:43;101523.59;;;19.64;58.58
56400;BME280;42298;53.638;9.876;2022-07-23T02:32:09;101519.78;;;19.57;58.69
56400;BME280;42298;53.638;9.876;2022-07-23T02:34:34;101517.94;;;19.49;59.39
56400;BME280;42298;53.638;9.876;2022-07-23T02:36:59;101517.34;;;19.43;59.31
56400;BME280;42298;53.638;9.876;2022-07-23T02:39:24;101510.34;;;19.37;59.30
56400;BME280;42298;53.638;9.876;2022-07-23T02:41:50;101512.34;;;19.37;59.32
56400;BME280;42298;53.638;9.876;2022-07-23T02:44:15;101518.50;;;19.30;59.31
56400;BME280;42298;53.638;9.876;2022-07-23T02:46:40;101511.50;;;19.24;60.14
56400;BME280;42298;53.638;9.876;2022-07-23T02:49:06;101513.47;;;19.24;59.87
56400;BME280;42298;53.638;9.876;2022-07-23T02:51:31;101510.09;;;19.18;60.29
56400;BME280;42298;53.638;9.876;2022-07-23T02:53:56;101515.34;;;19.20;60.69
56400;BME280;42298;53.638;9.876;2022-07-23T02:56:21;101520.34;;;19.26;60.33
56400;BME280;42298;53.638;9.876;2022-07-23T02:58:47;101514.31;;;19.36;60.13
56400;BME280;42298;53.638;9.876;2022-07-23T03:01:12;101517.81;;;19.45;59.61
56400;BME280;42298;53.638;9.876;2022-07-23T03:03:37;101522.00;;;19.51;59.73
56400;BME280;42298;53.638;9.876;2022-07-23T03:06:03;101518.03;;;19.52;59.14
56400;BME280;42298;53.638;9.876;2022-07-23T03:08:28;101514.06;;;19.53;59.34
56400;BME280;42298;53.638;9.876;2022-07-23T03:10:54;101501.81;;;19.58;59.11
56400;BME280;42298;53.638;9.876;2022-07-23T03:13:19;101504.03;;;19.64;58.99
56400;BME280;42298;53.638;9.876;2022-07-23T03:15:44;101502.84;;;19.65;59.18
56400;BME280;42298;53.638;9.876;2022-07-23T03:18:10;101506.47;;;19.66;58.77
56400;BME280;42298;53.638;9.876;2022-07-23T03:20:36;101501.72;;;19.66;59.10
56400;BME280;42298;53.638;9.876;2022-07-23T03:23:02;101499.00;;;19.70;59.12
56400;BME280;42298;53.638;9.876;2022-07-23T03:25:28;101496.31;;;19.73;58.88
56400;BME280;42298;53.638;9.876;2022-07-23T03:27:53;101507.97;;;19.75;59.10
56400;BME280;42298;53.638;9.876;2022-07-23T03:30:18;101509.47;;;19.73;59.13
56400;BME280;42298;53.638;9.876;2022-07-23T03:32:43;101500.31;;;19.72;59.24
56400;BME280;42298;53.638;9.876;2022-07-23T03:35:09;101499.72;;;19.67;59.08
56400;BME280;42298;53.638;9.876;2022-07-23T03:37:35;101496.56;;;19.68;59.09
56400;BME280;42298;53.638;9.876;2022-07-23T03:40:00;101499.59;;;19.75;58.92
56400;BME280;42298;53.638;9.876;2022-07-23T03:42:27;101493.31;;;19.78;59.13
56400;BME280;42298;53.638;9.876;2022-07-23T03:44:52;101503.09;;;19.72;59.12
56400;BME280;42298;53.638;9.876;2022-07-23T03:47:18;101507.97;;;19.75;58.97
56400;BME280;42298;53.638;9.876;2022-07-23T03:49:47;101503.19;;;19.76;59.13
56400;BME280;42298;53.638;9.876;2022-07-23T03:52:12;101494.00;;;19.75;58.95
56400;BME280;42298;53.638;9.876;2022-07-23T03:54:38;101494.44;;;19.77;58.94
56400;BME280;42298;53.638;9.876;2022-07-23T03:57:03;101497.00;;;19.82;58.95
56400;BME280;42298;53.638;9.876;2022-07-23T03:59:28;101491.19;;;19.87;59.05
56400;BME280;42298;53.638;9.876;2022-07-23T04:01:54;101501.19;;;19.88;59.02
56400;BME280;42298;53.638;9.876;2022-07-23T04:04:19;101507.69;;;19.92;59.08
56400;BME280;42298;53.638;9.876;2022-07-23T04:06:44;101512.09;;;20.05;58.81
56400;BME280;42298;53.638;9.876;2022-07-23T04:09:10;101513.59;;;20.15;58.58
56400;BME280;42298;53.638;9.876;2022-07-23T04:11:35;101518.59;;;20.21;58.23
56400;BME280;42298;53.638;9.876;2022-07-23T04:14:00;101516.69;;;20.25;57.86
56400;BME280;42298;53.638;9.876;2022-07-23T04:16:26;101519.75;;;20.20;58.01
56400;BME280;42298;53.638;9.876;2022-07-23T04:18:51;101517.31;;;20.19;58.23
56400;BME280;42298;53.638;9.876;2022-07-23T04:21:16;101521.75;;;20.20;58.06
56400;BME280;42298;53.638;9.876;2022-07-23T04:23:42;101522.09;;;20.18;58.21
56400;BME280;42298;53.638;9.876;2022-07-23T04:26:07;101525.13;;;20.13;58.34
56400;BME280;42298;53.638;9.876;2022-07-23T04:28:32;101534.91;;;20.07;58.65
56400;BME280;42298;53.638;9.876;2022-07-23T04:30:58;101524.22;;;19.97;58.42
56400;BME280;42298;53.638;9.876;2022-07-23T04:33:23;101526.00;;;19.90;58.60
56400;BME280;42298;53.638;9.876;2022-07-23T04:35:48;101528.22;;;19.84;58.23
56400;BME280;42298;53.638;9.876;2022-07-23T04:38:14;101526.38;;;19.76;58.41
56400;BME280;42298;53.638;9.876;2022-07-23T04:40:39;101535.22;;;19.78;58.36
56400;BME280;42298;53.638;9.876;2022-07-23T04:43:04;101541.88;;;19.74;58.39
56400;BME280;42298;53.638;9.876;2022-07-23T04:45:30;101528.59;;;19.71;58.33
56400;BME280;42298;53.638;9.876;2022-07-23T04:47:55;101534.53;;;19.69;58.18
56400;BME280;42298;53.638;9.876;2022-07-23T04:50:21;101531.28;;;19.67;58.30
56400;BME280;42298;53.638;9.876;2022-07-23T04:52:47;101530.34;;;19.75;57.75
56400;BME280;42298;53.638;9.876;2022-07-23T04:55:13;101519.59;;;19.77;58.17
56400;BME280;42298;53.638;9.876;2022-07-23T04:57:39;101520.31;;;19.74;58.22
56400;BME280;42298;53.638;9.876;2022-07-23T05:00:05;101522.19;;;19.70;58.37
56400;BME280;42298;53.638;9.876;2022-07-23T05:02:31;101517.78;;;19.69;57.99
56400;BME280;42298;53.638;9.876;2022-07-23T05:04:56;101524.75;;;19.75;58.48
56400;BME280;42298;53.638;9.876;2022-07-23T05:07:22;101526.59;;;19.83;58.10
56400;BME280;42298;53.638;9.876;2022-07-23T05:09:47;101525.78;;;19.83;57.56
56400;BME280;42298;53.638;9.876;2022-07-23T05:12:12;101525.31;;;19.81;57.64
56400;BME280;42298;53.638;9.876;2022-07-23T05:14:38;101533.34;;;19.82;57.77
56400;BME280;42298;53.638;9.876;2022-07-23T05:17:03;101541.75;;;19.82;57.63
56400;BME280;42298;53.638;9.876;2022-07-23T05:19:28;101530.09;;;19.80;57.77
56400;BME280;42298;53.638;9.876;2022-07-23T05:21:54;101522.88;;;19.79;57.58
56400;BME280;42298;53.638;9.876;2022-07-23T05:24:19;101528.22;;;19.84;57.53
56400;BME280;42298;53.638;9.876;2022-07-23T05:26:45;101537.31;;;19.81;57.71
56400;BME280;42298;53.638;9.876;2022-07-23T05:29:10;101539.09;;;19.74;57.43
56400;BME280;42298;53.638;9.876;2022-07-23T05:31:35;101538.59;;;19.72;57.74
56400;BME280;42298;53.638;9.876;2022-07-23T05:34:01;101550.34;;;19.77;57.60
56400;BME280;42298;53.638;9.876;2022-07-23T05:36:26;101542.09;;;19.81;57.31
56400;BME280;42298;53.638;9.876;2022-07-23T05:38:51;101547.34;;;19.82;57.41
56400;BME280;42298;53.638;9.876;2022-07-23T05:41:16;101547.09;;;19.87;57.47
56400;BME280;42298;53.638;9.876;2022-07-23T05:43:42;101542.09;;;19.81;57.56
56400;BME280;42298;53.638;9.876;2022-07-23T05:46:07;101556.91;;;19.81;58.06
56400;BME280;42298;53.638;9.876;2022-07-23T05:48:32;101539.16;;;19.89;58.00
56400;BME280;42298;53.638;9.876;2022-07-23T05:50:58;101544.03;;;19.92;57.98
56400;BME280;42298;53.638;9.876;2022-07-23T05:53:23;101547.06;;;19.99;58.30
56400;BME280;42298;53.638;9.876;2022-07-23T05:55:48;101550.19;;;20.10;57.68
56400;BME280;42298;53.638;9.876;2022-07-23T05:58:14;101558.69;;;20.13;57.74
56400;BME280;42298;53.638;9.876;2022-07-23T06:00:39;101554.03;;;20.17;57.47
56400;BME280;42298;53.638;9.876;2022-07-23T06:03:04;101551.47;;;20.12;57.91
56400;BME280;42298;53.638;9.876;2022-07-23T06:05:30;101557.41;;;20.11;58.13
56400;BME280;42298;53.638;9.876;2022-07-23T06:07:55;101546.78;;;20.16;57.96
56400;BME280;42298;53.638;9.876;2022-07-23T06:10:20;101547.75;;;20.20;58.19
56400;BME280;42298;53.638;9.876;2022-07-23T06:12:46;101555.16;;;20.28;57.46
56400;BME280;42298;53.638;9.876;2022-07-23T06:15:11;101557.41;;;20.50;57.72
56400;BME280;42298;53.638;9.876;2022-07-23T06:17:38;101548.44;;;20.72;56.96
56400;BME280;42298;53.638;9.876;2022-07-23T06:20:07;101556.75;;;20.85;56.54
56400;BME280;42298;53.638;9.876;2022-07-23T06:22:34;101553.50;;;20.83;56.18
56400;BME280;42298;53.638;9.876;2022-07-23T06:24:59;101550.88;;;20.90;55.82
56400;BME280;42298;53.638;9.876;2022-07-23T06:27:24;101556.72;;;20.97;55.76
56400;BME280;42298;53.638;9.876;2022-07-23T06:29:49;101558.16;;;21.06;55.44
56400;BME280;42298;53.638;9.876;2022-07-23T06:32:15;101554.19;;;21.07;55.14
56400;BME280;42298;53.638;9.876;2022-07-23T06:34:40;101555.63;;;21.17;55.24
56400;BME280;42298;53.638;9.876;2022-07-23T06:37:05;101558.63;;;21.24;54.95
56400;BME280;42298;53.638;9.876;2022-07-23T06:39:31;101556.19;;;21.22;55.38
56400;BME280;42298;53.638;9.876;2022-07-23T06:41:57;101556.72;;;21.28;54.47
56400;BME280;42298;53.638;9.876;2022-07-23T06:44:22;101569.75;;;21.36;54.63
56400;BME280;42298;53.638;9.876;2022-07-23T06:46:47;101571.16;;;21.45;54.26
56400;BME280;42298;53.638;9.876;2022-07-23T06:49:13;101565.28;;;21.50;54.71
56400;BME280;42298;53.638;9.876;2022-07-23T06:51:38;101572.25;;;21.56;54.60
56400;BME280;42298;53.638;9.876;2022-07-23T06:54:04;101564.38;;;21.62;54.56
56400;BME280;42298;53.638;9.876;2022-07-23T06:56:29;101577.56;;;21.61;55.02
56400;BME280;42298;53.638;9.876;2022-07-23T06:58:55;101589.16;;;21.44;57.07
56400;BME280;42298;53.638;9.876;2022-07-23T07:01:20;101592.41;;;21.15;59.23
56400;BME280;42298;53.638;9.876;2022-07-23T07:03:46;101583.22;;;20.87;60.57
56400;BME280;42298;53.638;9.876;2022-07-23T07:06:12;101580.88;;;20.89;60.95
56400;BME280;42298;53.638;9.876;2022-07-23T07:08:37;101595.47;;;20.95;60.57
56400;BME280;42298;53.638;9.876;2022-07-23T07:11:03;101596.84;;;20.89;60.15
56400;BME280;42298;53.638;9.876;2022-07-23T07:13:28;101598.28;;;20.83;60.12
56400;BME280;42298;53.638;9.876;2022-07-23T07:15:53;101601.81;;;20.79;61.83
56400;BME280;42298;53.638;9.876;2022-07-23T07:18:40;101604.34;;;20.57;60.11
56400;BME280;42298;53.638;9.876;2022-07-23T07:21:07;101607.06;;;20.53;61.25
56400;BME280;42298;53.638;9.876;2022-07-23T07:23:33;101615.41;;;20.65;60.83
56400;BME280;42298;53.638;9.876;2022-07-23T07:25:58;101604.59;;;20.79;60.98
56400;BME280;42298;53.638;9.876;2022-07-23T07:28:23;101596.84;;;20.89;61.49
56400;BME280;42298;53.638;9.876;2022-07-23T07:30:58;101595.03;;;21.08;62.33
56400;BME280;42298;53.638;9.876;2022-07-23T07:33:27;101591.44;;;21.23;60.48
56400;BME280;42298;53.638;9.876;2022-07-23T07:35:52;101596.84;;;21.32;58.83
56400;BME280;42298;53.638;9.876;2022-07-23T07:38:18;101589.53;;;21.43;56.79
56400;BME280;42298;53.638;9.876;2022-07-23T07:40:44;101595.84;;;21.40;57.88
56400;BME280;42298;53.638;9.876;2022-07-23T07:43:09;101599.25;;;21.64;55.30
56400;BME280;42298;53.638;9.876;2022-07-23T07:45:34;101594.50;;;21.80;55.53
56400;BME280;42298;53.638;9.876;2022-07-23T07:48:01;101591.88;;;22.06;55.37
56400;BME280;42298;53.638;9.876;2022-07-23T07:50:27;101594.25;;;22.58;54.04
56400;BME280;42298;53.638;9.876;2022-07-23T07:52:53;101596.31;;;23.03;51.95
56400;BME280;42298;53.638;9.876;2022-07-23T07:55:18;101606.66;;;23.18;52.94
56400;BME280;42298;53.638;9.876;2022-07-23T07:57:43;101602.50;;;22.89;55.95
56400;BME280;42298;53.638;9.876;2022-07-23T08:00:09;101602.69;;;22.42;57.82
56400;BME280;42298;53.638;9.876;2022-07-23T08:02:49;101606.59;;;22.19;58.75
56400;BME280;42298;53.638;9.876;2022-07-23T08:05:26;101606.50;;;21.65;59.44
56400;BME280;42298;53.638;9.876;2022-07-23T08:07:52;101602.81;;;21.46;60.99
56400;BME280;42298;53.638;9.876;2022-07-23T08:10:18;101596.75;;;21.44;61.92
56400;BME280;42298;53.638;9.876;2022-07-23T08:12:47;101593.69;;;21.49;59.75
56400;BME280;42298;53.638;9.876;2022-07-23T08:15:14;101594.22;;;21.54;61.49
56400;BME280;42298;53.638;9.876;2022-07-23T08:17:42;101594.19;;;21.85;61.31
56400;BME280;42298;53.638;9.876;2022-07-23T08:20:09;101606.25;;;22.20;59.19
56400;BME280;42298;53.638;9.876;2022-07-23T08:25:32;101601.09;;;22.41;56.77
56400;BME280;42298;53.638;9.876;2022-07-23T08:28:03;101603.41;;;22.55;57.30
56400;BME280;42298;53.638;9.876;2022-07-23T08:30:30;101600.28;;;22.79;56.82
56400;BME280;42298;53.638;9.876;2022-07-23T08:32:59;101599.81;;;22.96;55.56
56400;BME280;42298;53.638;9.876;2022-07-23T08:35:28;101597.44;;;22.98;56.15
56400;BME280;42298;53.638;9.876;2022-07-23T08:37:54;101602.44;;;23.08;55.63
56400;BME280;42298;53.638;9.876;2022-07-23T08:40:20;101590.53;;;23.15;53.65
56400;BME280;42298;53.638;9.876;2022-07-23T08:42:50;101595.25;;;23.30;53.41
56400;BME280;42298;53.638;9.876;2022-07-23T08:45:17;101599.34;;;23.58;53.35
56400;BME280;42298;53.638;9.876;2022-07-23T08:47:44;101586.09;;;23.85;51.53
56400;BME280;42298;53.638;9.876;2022-07-23T08:50:10;101594.06;;;24.05;50.46
56400;BME280;42298;53.638;9.876;2022-07-23T08:52:36;101604.88;;;24.29;49.86
56400;BME280;42298;53.638;9.876;2022-07-23T08:55:03;101601.25;;;24.59;49.07
56400;BME280;42298;53.638;9.876;2022-07-23T08:57:28;101588.31;;;24.87;49.12
56400;BME280;42298;53.638;9.876;2022-07-23T08:59:54;101600.38;;;25.24;47.71
56400;BME280;42298;53.638;9.876;2022-07-23T09:02:19;101592.31;;;25.66;47.04
56400;BME280;42298;53.638;9.876;2022-07-23T09:04:44;101596.25;;;26.09;45.97
56400;BME280;42298;53.638;9.876;2022-07-23T09:07:10;101587.50;;;26.32;45.54
56400;BME280;42298;53.638;9.876;2022-07-23T09:09:35;101591.50;;;26.24;45.30
56400;BME280;42298;53.638;9.876;2022-07-23T09:12:09;101582.31;;;26.44;44.49
56400;BME280;42298;53.638;9.876;2022-07-23T09:14:43;101586.72;;;26.35;43.67
56400;BME280;42298;53.638;9.876;2022-07-23T09:17:10;101585.41;;;26.15;43.58
56400;BME280;42298;53.638;9.876;2022-07-23T09:19:35;101587.28;;;25.96;43.67
56400;BME280;42298;53.638;9.876;2022-07-23T09:22:17;101592.19;;;26.03;44.69
56400;BME280;42298;53.638;9.876;2022-07-23T09:25:02;101590.91;;;25.97;42.99
56400;BME280;42298;53.638;9.876;2022-07-23T09:27:46;101589.06;;;25.61;44.44
56400;BME280;42298;53.638;9.876;2022-07-23T09:30:12;101585.28;;;25.43;45.56
56400;BME280;42298;53.638;9.876;2022-07-23T09:32:39;101595.78;;;25.46;45.87
56400;BME280;42298;53.638;9.876;2022-07-23T09:35:04;101595.44;;;25.54;45.26
56400;BME280;42298;53.638;9.876;2022-07-23T09:37:30;101603.03;;;25.47;44.40
56400;BME280;42298;53.638;9.876;2022-07-23T09:40:03;101599.50;;;25.17;43.50
56400;BME280;42298;53.638;9.876;2022-07-23T09:42:29;101602.47;;;24.94;44.70
56400;BME280;42298;53.638;9.876;2022-07-23T09:44:57;101611.34;;;24.63;45.51
56400;BME280;42298;53.638;9.876;2022-07-23T09:47:24;101619.09;;;24.40;45.76
56400;BME280;42298;53.638;9.876;2022-07-23T09:50:10;101618.00;;;24.18;46.20
56400;BME280;42298;53.638;9.876;2022-07-23T09:52:46;101622.50;;;23.97;46.17
56400;BME280;42298;53.638;9.876;2022-07-23T09:55:16;101629.91;;;23.86;46.59
56400;BME280;42298;53.638;9.876;2022-07-23T09:57:43;101623.94;;;23.65;46.35
56400;BME280;42298;53.638;9.876;2022-07-23T10:00:11;101630.56;;;23.50;46.28
56400;BME280;42298;53.638;9.876;2022-07-23T10:02:38;101626.28;;;23.37;46.75
56400;BME280;42298;53.638;9.876;2022-07-23T10:05:05;101626.66;;;23.35;47.31
56400;BME280;42298;53.638;9.876;2022-07-23T10:07:37;101630.00;;;23.41;47.09
56400;BME280;42298;53.638;9.876;2022-07-23T10:10:04;101621.50;;;23.63;47.79
56400;BME280;42298;53.638;9.876;2022-07-23T10:12:29;101627.53;;;24.10;47.09
56400;BME280;42298;53.638;9.876;2022-07-23T10:15:14;101622.59;;;24.30;46.02
56400;BME280;42298;53.638;9.876;2022-07-23T10:17:39;101620.34;;;24.43;46.31
56400;BME280;42298;53.638;9.876;2022-07-23T10:20:05;101617.19;;;24.48;45.79
56400;BME280;42298;53.638;9.876;2022-07-23T10:22:33;101627.28;;;24.49;45.93
56400;BME280;42298;53.638;9.876;2022-07-23T10:28:06;101623.09;;;24.09;46.77
56400;BME280;42298;53.638;9.876;2022-07-23T10:30:43;101625.00;;;24.02;47.68
56400;BME280;42298;53.638;9.876;2022-07-23T10:36:19;101637.13;;;23.83;48.56
56400;BME280;42298;53.638;9.876;2022-07-23T10:38:58;101639.56;;;23.85;48.19
56400;BME280;42298;53.638;9.876;2022-07-23T10:41:43;101635.44;;;24.01;48.28
56400;BME280;42298;53.638;9.876;2022-07-23T10:44:15;101630.81;;;24.16;47.01
56400;BME280;42298;53.638;9.876;2022-07-23T10:47:07;101629.53;;;24.10;45.91
56400;BME280;42298;53.638;9.876;2022-07-23T10:49:48;101636.03;;;24.14;46.22
56400;BME280;42298;53.638;9.876;2022-07-23T10:54:39;101639.06;;;24.02;47.06
56400;BME280;42298;53.638;9.876;2022-07-23T10:57:06;101639.88;;;24.02;47.49
56400;BME280;42298;53.638;9.876;2022-07-23T11:02:30;101633.31;;;23.95;47.81
56400;BME280;42298;53.638;9.876;2022-07-23T11:05:10;101639.94;;;24.06;48.04
56400;BME280;42298;53.638;9.876;2022-07-23T11:07:37;101641.44;;;24.26;47.08
56400;BME280;42298;53.638;9.876;2022-07-23T11:32:07;101644.63;;;25.17;43.81
56400;BME280;42298;53.638;9.876;2022-07-23T11:34:33;101644.91;;;25.45;44.22
56400;BME280;42298;53.638;9.876;2022-07-23T11:37:01;101646.66;;;25.60;43.45
56400;BME280;42298;53.638;9.876;2022-07-23T11:39:28;101654.97;;;25.86;42.32
56400;BME280;42298;53.638;9.876;2022-07-23T11:41:54;101650.97;;;25.94;42.14
56400;BME280;42298;53.638;9.876;2022-07-23T11:44:27;101652.66;;;25.98;41.76
56400;BME280;42298;53.638;9.876;2022-07-23T11:46:55;101655.50;;;26.02;42.49
56400;BME280;42298;53.638;9.876;2022-07-23T11:49:21;101651.72;;;25.84;41.89
56400;BME280;42298;53.638;9.876;2022-07-23T11:51:46;101647.59;;;25.74;42.20
56400;BME280;42298;53.638;9.876;2022-07-23T11:54:12;101643.44;;;25.58;42.77
56400;BME280;42298;53.638;9.876;2022-07-23T11:56:37;101656.13;;;25.38;43.26
56400;BME280;42298;53.638;9.876;2022-07-23T11:59:03;101655.19;;;25.27;42.92
56400;BME280;42298;53.638;9.876;2022-07-23T12:01:29;101657.34;;;25.37;43.24
56400;BME280;42298;53.638;9.876;2022-07-23T12:03:54;101660.88;;;25.30;43.20
56400;BME280;42298;53.638;9.876;2022-07-23T12:06:20;101661.97;;;25.22;43.27
56400;BME280;42298;53.638;9.876;2022-07-23T12:08:45;101657.63;;;25.28;42.90
56400;BME280;42298;53.638;9.876;2022-07-23T12:11:12;101665.38;;;25.35;42.84
56400;BME280;42298;53.638;9.876;2022-07-23T12:13:37;101657.84;;;25.46;43.24
56400;BME280;42298;53.638;9.876;2022-07-23T12:16:03;101664.09;;;25.69;41.72
56400;BME280;42298;53.638;9.876;2022-07-23T12:18:30;101662.91;;;25.73;40.72
56400;BME280;42298;53.638;9.876;2022-07-23T12:20:56;101663.59;;;25.60;40.73
56400;BME280;42298;53.638;9.876;2022-07-23T12:23:23;101673.94;;;25.45;41.37
56400;BME280;42298;53.638;9.876;2022-07-23T12:25:50;101659.56;;;25.57;41.15
56400;BME280;42298;53.638;9.876;2022-07-23T12:28:21;101667.28;;;25.67;41.10
56400;BME280;42298;53.638;9.876;2022-07-23T12:30:51;101669.34;;;25.70;41.36
56400;BME280;42298;53.638;9.876;2022-07-23T12:33:32;101668.94;;;25.72;40.41
56400;BME280;42298;53.638;9.876;2022-07-23T12:36:06;101679.84;;;25.73;40.33
56400;BME280;42298;53.638;9.876;2022-07-23T12:38:44;101670.22;;;25.78;40.38
56400;BME280;42298;53.638;9.876;2022-07-23T12:41:11;101668.66;;;25.84;40.21
56400;BME280;42298;53.638;9.876;2022-07-23T12:43:38;101671.63;;;26.01;40.04
56400;BME280;42298;53.638;9.876;2022-07-23T12:48:36;101683.97;;;25.86;40.14
56400;BME280;42298;53.638;9.876;2022-07-23T12:51:02;101675.13;;;25.88;40.71
56400;BME280;42298;53.638;9.876;2022-07-23T12:53:31;101678.06;;;25.98;41.43
56400;BME280;42298;53.638;9.876;2022-07-23T12:56:06;101673.72;;;26.08;40.38
56400;BME280;42298;53.638;9.876;2022-07-23T13:01:05;101676.00;;;26.53;40.08
56400;BME280;42298;53.638;9.876;2022-07-23T13:03:40;101682.97;;;26.66;39.87
56400;BME280;42298;53.638;9.876;2022-07-23T13:06:08;101681.78;;;26.71;39.99
56400;BME280;42298;53.638;9.876;2022-07-23T13:08:36;101684.53;;;26.60;39.86
56400;BME280;42298;53.638;9.876;2022-07-23T13:11:02;101676.56;;;26.15;38.45
56400;BME280;42298;53.638;9.876;2022-07-23T13:13:29;101676.69;;;25.78;39.63
56400;BME280;42298;53.638;9.876;2022-07-23T13:15:56;101681.84;;;25.73;40.45
56400;BME280;42298;53.638;9.876;2022-07-23T13:18:22;101684.31;;;25.78;40.26
56400;BME280;42298;53.638;9.876;2022-07-23T13:20:48;101687.56;;;25.80;39.67
56400;BME280;42298;53.638;9.876;2022-07-23T13:23:14;101681.63;;;25.92;40.26
56400;BME280;42298;53.638;9.876;2022-07-23T13:25:39;101689.34;;;25.98;40.06
56400;BME280;42298;53.638;9.876;2022-07-23T13:28:05;101691.66;;;25.89;40.20
56400;BME280;42298;53.638;9.876;2022-07-23T13:30:30;101686.94;;;25.53;40.69